Time;durP1;ratioP1;P1;durP2;ratioP2;P2;SDS_P1;SDS_P2;PMS_P1;PMS_P2;Temp;Humidity;BMP_temperature;BMP_pressure;BME280_temperature;BME280_humidity;BME280_pressure;Samples;Min_cycle;Max_cycle;Signal;HPM_P1;HPM_P2
2023/08/06 00:01:51;;;;;;;;;;;;;;;21.26;100.00;94056.50;5134744;27;1988;-59
2023/08/06 00:04:17;;;;;;;;;;;;;;;21.35;100.00;94057.69;5134544;27;1024;-59
2023/08/06 00:06:43;;;;;;;;;;;;;;;21.31;100.00;94062.00;5134708;27;1062;-59
2023/08/06 00:09:09;;;;;;;;;;;;;;;21.11;100.00;94051.69;5134892;27;984;-59
2023/08/06 00:11:35;;;;;;;;;;;;;;;21.00;100.00;94056.22;5134634;27;1032;-59
2023/08/06 00:14:01;;;;;;;;;;;;;;;20.83;100.00;94058.97;5134777;27;977;-59
2023/08/06 00:16:27;;;;;;;;;;;;;;;20.83;100.00;94055.41;5116421;27;1040;-59
2023/08/06 00:18:53;;;;;;;;;;;;;;;20.94;100.00;94053.66;5134828;27;957;-59
2023/08/06 00:21:19;;;;;;;;;;;;;;;21.03;100.00;94069.28;5134330;27;1988;-59
2023/08/06 00:23:45;;;;;;;;;;;;;;;21.17;100.00;94072.47;5134687;27;1004;-59
2023/08/06 00:26:11;;;;;;;;;;;;;;;21.22;100.00;94075.22;5134658;27;965;-59
2023/08/06 00:28:37;;;;;;;;;;;;;;;21.25;100.00;94076.63;5134320;28;1192;-59
2023/08/06 00:31:03;;;;;;;;;;;;;;;21.27;100.00;94077.19;5134180;28;1230;-60
2023/08/06 00:33:29;;;;;;;;;;;;;;;21.30;100.00;94084.00;5134345;28;1047;-59
2023/08/06 00:35:55;;;;;;;;;;;;;;;21.29;100.00;94076.94;5134302;28;1110;-59
2023/08/06 00:38:20;;;;;;;;;;;;;;;21.35;100.00;94082.16;5134216;28;1036;-59
2023/08/06 00:40:47;;;;;;;;;;;;;;;21.31;100.00;94072.06;5134251;28;1909;-60
2023/08/06 00:43:13;;;;;;;;;;;;;;;21.32;100.00;94062.81;5134417;28;1047;-59
2023/08/06 00:45:39;;;;;;;;;;;;;;;21.31;100.00;94061.19;5134608;28;977;-59
2023/08/06 00:48:06;;;;;;;;;;;;;;;21.30;100.00;94051.38;5134256;28;912;-59
2023/08/06 00:50:32;;;;;;;;;;;;;;;21.23;100.00;94029.84;5134466;28;955;-59
2023/08/06 00:52:58;;;;;;;;;;;;;;;21.21;100.00;94032.00;5114957;28;2786;-59
2023/08/06 00:55:24;;;;;;;;;;;;;;;21.22;100.00;94034.44;5120176;28;2566;-59
2023/08/06 00:57:52;;;;;;;;;;;;;;;21.26;100.00;94045.63;5133186;28;2865;-59
2023/08/06 01:00:19;;;;;;;;;;;;;;;21.19;100.00;94047.72;5134299;28;2012;-59
2023/08/06 01:02:46;;;;;;;;;;;;;;;21.23;100.00;94046.97;5134392;28;995;-59
2023/08/06 01:05:12;;;;;;;;;;;;;;;21.24;100.00;94039.63;5133914;28;1090;-59
2023/08/06 01:07:49;;;;;;;;;;;;;;;21.24;100.00;94037.72;5134056;28;1027;-60
2023/08/06 01:10:14;;;;;;;;;;;;;;;21.25;100.00;94027.69;5134293;28;1055;-60
2023/08/06 01:12:40;;;;;;;;;;;;;;;21.26;100.00;94024.69;5134026;28;1044;-60
2023/08/06 01:15:09;;;;;;;;;;;;;;;21.13;100.00;94018.84;5134217;28;1034;-60
2023/08/06 01:17:36;;;;;;;;;;;;;;;21.02;100.00;94015.22;5135927;27;1036;-60
2023/08/06 01:20:02;;;;;;;;;;;;;;;21.15;100.00;94012.09;5137759;27;2000;-60
2023/08/06 01:22:28;;;;;;;;;;;;;;;21.20;100.00;94019.47;5137750;27;1000;-60
2023/08/06 01:24:54;;;;;;;;;;;;;;;21.19;100.00;94018.66;5138047;27;1022;-60
2023/08/06 01:27:20;;;;;;;;;;;;;;;21.28;100.00;94019.00;5126671;27;2905;-59
2023/08/06 01:29:48;;;;;;;;;;;;;;;21.24;100.00;94015.16;5128343;27;1189;-59
2023/08/06 01:32:16;;;;;;;;;;;;;;;21.11;100.00;94012.84;5137455;27;1206;-60
2023/08/06 01:34:44;;;;;;;;;;;;;;;21.14;100.00;94015.88;5137206;27;1080;-59
2023/08/06 01:37:11;;;;;;;;;;;;;;;21.13;100.00;94008.78;5137443;27;1071;-59
2023/08/06 01:39:37;;;;;;;;;;;;;;;21.17;100.00;94001.78;5137481;27;1052;-59
2023/08/06 01:42:03;;;;;;;;;;;;;;;21.05;100.00;93992.94;5137693;27;1906;-60
2023/08/06 01:44:29;;;;;;;;;;;;;;;20.94;100.00;93986.56;5137299;27;1102;-60
2023/08/06 01:46:55;;;;;;;;;;;;;;;21.01;100.00;93987.19;5137454;27;1203;-60
2023/08/06 01:49:21;;;;;;;;;;;;;;;21.11;100.00;93980.25;5137226;27;1040;-60
2023/08/06 01:51:47;;;;;;;;;;;;;;;21.08;100.00;93978.03;5137210;27;1076;-59
2023/08/06 01:54:13;;;;;;;;;;;;;;;20.95;100.00;93982.78;5137331;27;1012;-60
2023/08/06 01:56:38;;;;;;;;;;;;;;;20.99;100.00;93988.53;5137146;27;1111;-60
2023/08/06 01:59:04;;;;;;;;;;;;;;;20.99;100.00;93988.53;5137401;27;1064;-59
2023/08/06 02:01:30;;;;;;;;;;;;;;;20.96;100.00;93980.88;5136984;27;1906;-60
2023/08/06 02:03:56;;;;;;;;;;;;;;;20.89;100.00;93975.66;5137228;27;1060;-60
2023/08/06 02:06:22;;;;;;;;;;;;;;;20.90;100.00;93971.03;5137251;27;1415;-60
2023/08/06 02:08:48;;;;;;;;;;;;;;;20.93;100.00;93963.22;5137235;27;997;-60
2023/08/06 02:11:14;;;;;;;;;;;;;;;20.93;100.00;93975.97;5137058;27;1000;-60
2023/08/06 02:13:40;;;;;;;;;;;;;;;20.76;100.00;93973.31;5136826;27;1107;-59
2023/08/06 02:16:08;;;;;;;;;;;;;;;20.75;100.00;93977.09;5136748;27;1024;-59
2023/08/06 02:18:34;;;;;;;;;;;;;;;20.65;100.00;93985.94;5136612;27;1116;-59
2023/08/06 02:21:00;;;;;;;;;;;;;;;20.69;100.00;93983.56;5136651;27;1975;-60
2023/08/06 02:23:26;;;;;;;;;;;;;;;20.79;100.00;93991.81;5136859;27;977;-60
2023/08/06 02:25:59;;;;;;;;;;;;;;;20.82;100.00;94000.28;5136729;27;1274;-59
2023/08/06 02:28:25;;;;;;;;;;;;;;;20.93;100.00;94005.84;5136259;27;1119;-59
2023/08/06 02:30:51;;;;;;;;;;;;;;;21.06;100.00;94005.47;5115788;27;1970;-60
2023/08/06 02:33:17;;;;;;;;;;;;;;;21.07;100.00;94004.38;5115886;28;1051;-60
2023/08/06 02:35:43;;;;;;;;;;;;;;;21.09;100.00;94007.66;5116046;28;1040;-59
2023/08/06 02:38:09;;;;;;;;;;;;;;;21.14;100.00;94007.72;5116091;28;969;-59
2023/08/06 02:40:35;;;;;;;;;;;;;;;21.07;100.00;94012.53;5115798;28;1906;-59
2023/08/06 02:43:01;;;;;;;;;;;;;;;21.18;100.00;94010.75;5115827;28;1044;-60
2023/08/06 02:45:27;;;;;;;;;;;;;;;21.16;100.00;94018.34;5115870;28;1040;-60
2023/08/06 02:47:53;;;;;;;;;;;;;;;21.10;100.00;94022.91;5115539;28;1036;-59
2023/08/06 02:50:19;;;;;;;;;;;;;;;21.08;100.00;94030.50;5097470;28;1644;-59
2023/08/06 02:52:45;;;;;;;;;;;;;;;20.98;100.00;94033.06;5115690;28;958;-59
2023/08/06 02:55:10;;;;;;;;;;;;;;;20.95;100.00;94037.13;5115365;28;1107;-58
2023/08/06 02:57:36;;;;;;;;;;;;;;;20.87;100.00;94034.84;5115719;28;1025;-59
2023/08/06 03:00:02;;;;;;;;;;;;;;;20.83;100.00;94044.56;5115442;28;1906;-59
2023/08/06 03:02:28;;;;;;;;;;;;;;;20.80;100.00;94042.38;5130622;27;3124;-59
2023/08/06 03:04:54;;;;;;;;;;;;;;;20.83;100.00;94036.41;5135756;27;1087;-60
2023/08/06 03:07:20;;;;;;;;;;;;;;;20.67;100.00;94036.22;5135851;27;965;-60
2023/08/06 03:09:46;;;;;;;;;;;;;;;20.74;100.00;94035.22;5135989;27;1055;-59
2023/08/06 03:12:12;;;;;;;;;;;;;;;20.85;100.00;94037.00;5135866;27;970;-59
2023/08/06 03:14:38;;;;;;;;;;;;;;;20.86;100.00;94039.44;5135848;27;992;-59
2023/08/06 03:17:04;;;;;;;;;;;;;;;20.96;100.00;94046.94;5135497;27;1032;-59
2023/08/06 03:19:30;;;;;;;;;;;;;;;20.96;100.00;94040.66;5134382;27;2767;-59
2023/08/06 03:21:56;;;;;;;;;;;;;;;20.89;100.00;94048.16;5135326;27;1901;-59
2023/08/06 03:24:22;;;;;;;;;;;;;;;20.80;100.00;94047.78;5135461;27;1025;-59
2023/08/06 03:26:48;;;;;;;;;;;;;;;20.52;100.00;94040.59;5135702;27;975;-59
2023/08/06 03:29:14;;;;;;;;;;;;;;;20.47;100.00;94039.44;5133652;27;2906;-59
2023/08/06 03:31:40;;;;;;;;;;;;;;;20.33;100.00;94032.72;5135116;27;1068;-59
2023/08/06 03:34:06;;;;;;;;;;;;;;;20.18;100.00;94032.50;5135470;27;1036;-59
2023/08/06 03:36:32;;;;;;;;;;;;;;;20.19;100.00;94039.56;5135259;27;975;-63
2023/08/06 03:38:58;;;;;;;;;;;;;;;20.20;100.00;94041.19;5135125;27;1048;-60
2023/08/06 03:41:24;;;;;;;;;;;;;;;20.28;100.00;94038.09;5134417;27;1996;-60
2023/08/06 03:43:50;;;;;;;;;;;;;;;20.21;100.00;94042.84;5135375;27;989;-59
2023/08/06 03:46:16;;;;;;;;;;;;;;;20.02;100.00;94034.16;5134977;27;1035;-60
2023/08/06 03:48:42;;;;;;;;;;;;;;;19.88;100.00;94044.50;5135185;27;1031;-61
2023/08/06 03:51:07;;;;;;;;;;;;;;;19.93;100.00;94044.59;5135090;27;977;-60
2023/08/06 03:53:34;;;;;;;;;;;;;;;19.96;100.00;94041.38;5135099;27;1342;-61
2023/08/06 03:56:00;;;;;;;;;;;;;;;20.06;100.00;94046.16;5135169;27;995;-60
2023/08/06 03:58:26;;;;;;;;;;;;;;;20.05;100.00;94044.50;5126860;27;1519;-60
2023/08/06 04:00:59;;;;;;;;;;;;;;;19.90;100.00;94042.38;5114071;28;1906;-60
2023/08/06 04:03:25;;;;;;;;;;;;;;;19.82;100.00;94040.06;5114351;28;1011;-60
2023/08/06 04:05:51;;;;;;;;;;;;;;;19.84;100.00;94046.06;5114089;28;1052;-60
2023/08/06 04:08:17;;;;;;;;;;;;;;;19.70;100.00;94040.09;5114281;28;1083;-60
2023/08/06 04:10:43;;;;;;;;;;;;;;;19.66;100.00;94052.50;5114161;28;1020;-60
2023/08/06 04:13:09;;;;;;;;;;;;;;;19.75;100.00;94055.66;5114309;28;1060;-58
2023/08/06 04:15:35;;;;;;;;;;;;;;;19.74;100.00;94054.84;5113925;28;1542;-58
2023/08/06 04:18:01;;;;;;;;;;;;;;;19.80;100.00;94051.13;5113906;28;1087;-58
2023/08/06 04:20:27;;;;;;;;;;;;;;;19.88;100.00;94050.75;5114083;28;1990;-58
2023/08/06 04:22:54;;;;;;;;;;;;;;;20.00;100.00;94047.97;5113872;28;1083;-58
2023/08/06 04:25:21;;;;;;;;;;;;;;;20.04;100.00;94049.09;5113737;28;1075;-60
2023/08/06 04:27:47;;;;;;;;;;;;;;;20.14;100.00;94047.63;5114112;28;1002;-60
2023/08/06 04:30:13;;;;;;;;;;;;;;;20.34;100.00;94055.28;5128667;28;1217;-58
2023/08/06 04:32:39;;;;;;;;;;;;;;;20.50;100.00;94062.56;5134259;28;1196;-60
2023/08/06 04:35:05;;;;;;;;;;;;;;;20.69;100.00;94059.59;5134587;28;980;-61
2023/08/06 04:37:31;;;;;;;;;;;;;;;20.93;100.00;94061.00;5134493;28;1067;-61
2023/08/06 04:39:57;;;;;;;;;;;;;;;21.13;100.00;94057.72;5134170;28;1910;-60
2023/08/06 04:42:23;;;;;;;;;;;;;;;21.12;100.00;94057.97;5134287;28;995;-59
2023/08/06 04:44:50;;;;;;;;;;;;;;;21.10;100.00;94049.25;5134266;28;1036;-59
2023/08/06 04:47:15;;;;;;;;;;;;;;;21.08;100.00;94048.66;5134394;28;995;-59
2023/08/06 04:49:41;;;;;;;;;;;;;;;21.27;100.00;94044.56;5116171;28;1030;-60
2023/08/06 04:52:07;;;;;;;;;;;;;;;21.48;100.00;94036.69;5135483;27;1011;-61
2023/08/06 04:54:33;;;;;;;;;;;;;;;21.66;99.90;94040.91;5138408;27;967;-60
2023/08/06 04:56:59;;;;;;;;;;;;;;;21.87;96.37;94044.66;5138626;27;1040;-60
2023/08/06 04:59:25;;;;;;;;;;;;;;;21.86;96.83;94043.84;5138165;27;1027;-59
2023/08/06 05:01:51;;;;;;;;;;;;;;;21.70;99.04;94039.31;5128784;27;1992;-60
2023/08/06 05:04:17;;;;;;;;;;;;;;;21.52;95.75;94035.88;5126942;27;1240;-60
2023/08/06 05:06:43;;;;;;;;;;;;;;;21.37;98.54;94019.38;5127254;27;1228;-60
2023/08/06 05:09:09;;;;;;;;;;;;;;;21.18;100.00;94011.56;5128421;27;1347;-61
2023/08/06 05:11:35;;;;;;;;;;;;;;;21.11;100.00;94021.00;5129382;27;2441;-60
2023/08/06 05:14:01;;;;;;;;;;;;;;;21.14;100.00;94024.03;5127422;27;1624;-60
2023/08/06 05:16:27;;;;;;;;;;;;;;;21.21;100.00;94019.22;5128217;27;1237;-61
2023/08/06 05:18:53;;;;;;;;;;;;;;;21.28;100.00;94029.88;5128023;27;2470;-59
2023/08/06 05:21:19;;;;;;;;;;;;;;;21.32;100.00;94031.00;5129108;27;1914;-59
2023/08/06 05:23:45;;;;;;;;;;;;;;;21.37;100.00;94036.50;5126703;27;1220;-59
2023/08/06 05:26:11;;;;;;;;;;;;;;;21.52;99.02;94035.06;5128308;27;1233;-59
2023/08/06 05:28:36;;;;;;;;;;;;;;;21.63;99.09;94039.53;5125498;27;1272;-59
2023/08/06 05:31:03;;;;;;;;;;;;;;;21.87;99.17;94042.75;5124065;27;1245;-59
2023/08/06 05:33:29;;;;;;;;;;;;;;;21.98;98.67;94032.78;5107484;28;1218;-59
2023/08/06 05:35:55;;;;;;;;;;;;;;;22.10;100.00;94043.47;5105741;28;1300;-59
2023/08/06 05:38:21;;;;;;;;;;;;;;;22.08;100.00;94037.47;5106698;28;1243;-59
2023/08/06 05:40:47;;;;;;;;;;;;;;;22.09;100.00;94044.56;5106892;28;1909;-59
2023/08/06 05:43:13;;;;;;;;;;;;;;;22.33;96.72;94035.00;5105018;28;1292;-58
2023/08/06 05:45:39;;;;;;;;;;;;;;;22.61;93.67;94032.97;5108283;28;1236;-58
2023/08/06 05:48:05;;;;;;;;;;;;;;;22.75;93.58;94031.44;5105703;28;1292;-57
2023/08/06 05:50:31;;;;;;;;;;;;;;;22.83;92.56;94021.13;5107072;28;1106;-57
2023/08/06 05:52:57;;;;;;;;;;;;;;;22.81;93.39;94027.66;5105383;28;1288;-57
2023/08/06 05:55:23;;;;;;;;;;;;;;;23.11;92.03;94033.56;5106138;28;1329;-57
2023/08/06 05:57:49;;;;;;;;;;;;;;;23.28;88.56;94034.16;5113137;28;1356;-58
2023/08/06 06:00:15;;;;;;;;;;;;;;;23.19;91.54;94036.56;5116689;28;2253;-58
2023/08/06 06:02:41;;;;;;;;;;;;;;;23.08;95.47;94034.88;5116303;28;1036;-58
2023/08/06 06:05:07;;;;;;;;;;;;;;;23.17;93.13;94037.94;5116619;28;1029;-57
2023/08/06 06:07:33;;;;;;;;;;;;;;;23.39;90.11;94045.88;5116318;28;1029;-58
2023/08/06 06:09:59;;;;;;;;;;;;;;;23.42;92.41;94042.63;5116640;28;994;-59
2023/08/06 06:12:26;;;;;;;;;;;;;;;23.49;92.86;94045.94;5116521;28;980;-58
2023/08/06 06:14:52;;;;;;;;;;;;;;;23.58;89.23;94049.78;5098212;28;953;-58
2023/08/06 06:17:17;;;;;;;;;;;;;;;23.45;91.54;94053.03;5116387;28;1072;-58
2023/08/06 06:19:43;;;;;;;;;;;;;;;23.43;90.37;94052.47;5115177;28;2905;-58
2023/08/06 06:22:09;;;;;;;;;;;;;;;23.31;86.83;94060.06;5116383;28;1902;-58
2023/08/06 06:24:35;;;;;;;;;;;;;;;23.48;88.08;94059.84;5116213;28;1044;-58
2023/08/06 06:27:01;;;;;;;;;;;;;;;23.56;91.71;94062.03;5115775;28;2146;-59
2023/08/06 06:29:29;;;;;;;;;;;;;;;23.63;90.69;94056.34;5115057;28;2760;-59
2023/08/06 06:31:55;;;;;;;;;;;;;;;23.55;90.29;94063.94;5127224;27;1103;-59
2023/08/06 06:34:21;;;;;;;;;;;;;;;23.45;91.01;94068.56;5136724;27;995;-58
2023/08/06 06:36:46;;;;;;;;;;;;;;;23.50;87.34;94068.56;5136730;27;994;-58
2023/08/06 06:39:12;;;;;;;;;;;;;;;23.72;88.88;94079.28;5136612;27;1027;-58
2023/08/06 06:41:38;;;;;;;;;;;;;;;23.73;87.52;94075.44;5136519;27;1980;-59
2023/08/06 06:44:05;;;;;;;;;;;;;;;23.87;86.16;94081.25;5136247;27;1036;-58
2023/08/06 06:46:31;;;;;;;;;;;;;;;24.01;84.96;94081.53;5117976;27;1110;-60
2023/08/06 06:48:57;;;;;;;;;;;;;;;24.50;81.29;94083.75;5136426;27;999;-59
2023/08/06 06:51:23;;;;;;;;;;;;;;;24.79;78.09;94094.13;5136201;27;1031;-58
2023/08/06 06:53:49;;;;;;;;;;;;;;;24.88;78.24;94096.03;5130863;27;1141;-58
2023/08/06 06:56:15;;;;;;;;;;;;;;;25.02;76.32;94099.00;5134666;27;1248;-58
2023/08/06 06:58:41;;;;;;;;;;;;;;;24.96;79.27;94088.34;5136134;27;1051;-59
2023/08/06 07:01:07;;;;;;;;;;;;;;;24.87;80.78;94088.09;5136057;27;1991;-59
2023/08/06 07:03:33;;;;;;;;;;;;;;;25.17;78.39;94089.13;5136052;27;1024;-59
2023/08/06 07:05:59;;;;;;;;;;;;;;;25.33;78.72;94093.47;5135774;27;1055;-59
2023/08/06 07:08:25;;;;;;;;;;;;;;;25.47;75.54;94096.44;5135775;27;1028;-59
2023/08/06 07:10:59;;;;;;;;;;;;;;;25.65;73.18;94094.97;5135683;27;952;-57
2023/08/06 07:13:25;;;;;;;;;;;;;;;25.66;72.96;94094.69;5135828;27;1004;-57
2023/08/06 07:15:51;;;;;;;;;;;;;;;25.59;68.70;94083.25;5134698;27;1043;-57
2023/08/06 07:18:17;;;;;;;;;;;;;;;25.72;68.06;94090.00;5135449;27;1115;-59
2023/08/06 07:20:47;;;;;;;;;;;;;;;25.66;62.60;94088.41;5135808;27;1905;-58
2023/08/06 07:23:13;;;;;;;;;;;;;;;25.53;63.29;94087.09;5135457;27;1099;-57
2023/08/06 07:25:39;;;;;;;;;;;;;;;25.39;63.91;94086.06;5135469;27;981;-57
2023/08/06 07:28:05;;;;;;;;;;;;;;;25.35;62.82;94085.81;5135658;27;946;-57
2023/08/06 07:30:31;;;;;;;;;;;;;;;25.37;64.49;94083.63;5117863;27;1232;-57
2023/08/06 07:32:57;;;;;;;;;;;;;;;25.61;63.69;94085.69;5114701;28;1120;-58
2023/08/06 07:35:23;;;;;;;;;;;;;;;25.73;60.71;94082.63;5114697;28;1024;-58
2023/08/06 07:37:49;;;;;;;;;;;;;;;25.86;64.39;94084.75;5114680;28;1020;-58
2023/08/06 07:40:15;;;;;;;;;;;;;;;25.86;64.92;94082.03;5130301;27;2580;-59
2023/08/06 07:42:41;;;;;;;;;;;;;;;25.98;64.84;94082.50;5135148;27;1060;-59
2023/08/06 07:45:08;;;;;;;;;;;;;;;26.05;62.16;94085.75;5135396;27;1057;-59
2023/08/06 07:47:33;;;;;;;;;;;;;;;26.03;59.14;94081.66;5134948;27;1028;-58
2023/08/06 07:49:59;;;;;;;;;;;;;;;26.13;63.99;94084.31;5134656;27;1037;-58
2023/08/06 07:52:25;;;;;;;;;;;;;;;26.42;65.32;94091.78;5134429;27;1095;-59
2023/08/06 07:54:51;;;;;;;;;;;;;;;26.51;59.83;94101.03;5135021;27;963;-59
2023/08/06 07:57:17;;;;;;;;;;;;;;;26.61;58.76;94094.66;5135106;27;1031;-62
2023/08/06 07:59:43;;;;;;;;;;;;;;;26.72;57.38;94095.41;5134849;27;1087;-63
2023/08/06 08:02:09;;;;;;;;;;;;;;;26.76;56.78;94089.03;5134408;27;1902;-63
2023/08/06 08:04:35;;;;;;;;;;;;;;;26.75;55.45;94090.16;5134902;27;1054;-63
2023/08/06 08:07:02;;;;;;;;;;;;;;;26.94;54.46;94090.25;5134559;27;2976;-63
2023/08/06 08:09:28;;;;;;;;;;;;;;;26.88;59.55;94084.00;5132373;27;2824;-63
2023/08/06 08:11:54;;;;;;;;;;;;;;;26.85;60.56;94084.56;5134708;27;1381;-63
2023/08/06 08:14:20;;;;;;;;;;;;;;;26.95;54.43;94091.88;5134869;27;970;-64
2023/08/06 08:16:46;;;;;;;;;;;;;;;27.10;53.72;94101.88;5134623;27;1035;-63
2023/08/06 08:19:11;;;;;;;;;;;;;;;27.00;53.90;94102.00;5134521;27;1099;-65
2023/08/06 08:21:37;;;;;;;;;;;;;;;26.65;52.95;94104.78;5116349;27;1992;-64
2023/08/06 08:24:04;;;;;;;;;;;;;;;26.64;58.27;94105.06;5134538;27;1024;-63
2023/08/06 08:26:30;;;;;;;;;;;;;;;26.88;56.82;94100.47;5134564;27;1007;-64
2023/08/06 08:28:56;;;;;;;;;;;;;;;27.08;52.99;94098.63;5134450;27;1169;-61
2023/08/06 08:31:22;;;;;;;;;;;;;;;27.16;53.67;94097.97;5126615;27;2963;-63
2023/08/06 08:33:48;;;;;;;;;;;;;;;27.38;54.49;94099.44;5117625;28;1334;-62
2023/08/06 08:36:14;;;;;;;;;;;;;;;27.38;53.30;94089.25;5133897;28;1257;-62
2023/08/06 08:38:40;;;;;;;;;;;;;;;26.77;53.21;94098.91;5134258;28;1040;-61
2023/08/06 08:41:06;;;;;;;;;;;;;;;27.05;54.84;94094.53;5134013;28;1996;-62
2023/08/06 08:43:32;;;;;;;;;;;;;;;27.33;54.01;94086.56;5134206;28;1099;-62
2023/08/06 08:45:59;;;;;;;;;;;;;;;27.47;52.29;94094.94;5110986;28;2637;-61
2023/08/06 08:48:26;;;;;;;;;;;;;;;27.49;55.75;94080.88;5095839;28;2837;-61
2023/08/06 08:50:53;;;;;;;;;;;;;;;27.48;49.82;94098.47;5093251;28;966;-61
2023/08/06 08:53:21;;;;;;;;;;;;;;;27.22;53.00;94096.81;5093400;28;1057;-61
2023/08/06 08:55:48;;;;;;;;;;;;;;;27.25;53.28;94095.44;5103864;28;979;-61
2023/08/06 08:58:14;;;;;;;;;;;;;;;27.60;51.60;94085.97;5113697;28;1040;-59
2023/08/06 09:00:41;;;;;;;;;;;;;;;27.60;49.93;94104.34;5113573;28;1883;-62
2023/08/06 09:03:07;;;;;;;;;;;;;;;27.76;50.88;94096.75;5113750;28;1211;-60
2023/08/06 09:05:34;;;;;;;;;;;;;;;27.78;50.33;94091.78;5113228;28;1044;-61
2023/08/06 09:08:03;;;;;;;;;;;;;;;27.89;50.16;94098.81;5113620;28;1118;-60
2023/08/06 09:10:29;;;;;;;;;;;;;;;27.90;48.97;94094.13;5113398;28;1116;-60
2023/08/06 09:12:56;;;;;;;;;;;;;;;27.90;47.86;94103.19;5113765;28;1020;-60
2023/08/06 09:15:25;;;;;;;;;;;;;;;27.97;47.92;94105.56;5113206;28;1095;-61
2023/08/06 09:17:54;;;;;;;;;;;;;;;28.00;49.14;94097.56;5113580;28;1052;-60
2023/08/06 09:20:20;;;;;;;;;;;;;;;28.16;50.43;94086.34;5113326;28;1937;-62
2023/08/06 09:22:48;;;;;;;;;;;;;;;28.37;48.60;94092.34;5113620;28;992;-64
2023/08/06 09:25:25;;;;;;;;;;;;;;;28.15;48.77;94074.53;5113333;28;1106;-61
2023/08/06 09:27:54;;;;;;;;;;;;;;;27.92;50.33;94094.66;5113310;28;1083;-64
2023/08/06 09:30:31;;;;;;;;;;;;;;;27.95;47.63;94096.81;5097490;28;1153;-62
2023/08/06 09:32:57;;;;;;;;;;;;;;;27.31;47.03;94096.22;5112826;28;1167;-61
2023/08/06 09:35:23;;;;;;;;;;;;;;;27.43;50.02;94078.22;5101066;28;1085;-60
2023/08/06 09:37:49;;;;;;;;;;;;;;;27.67;47.43;94082.88;5134680;27;979;-60
2023/08/06 09:40:24;;;;;;;;;;;;;;;27.52;48.24;94085.81;5137537;27;1905;-60
2023/08/06 09:42:50;;;;;;;;;;;;;;;27.11;48.04;94087.06;5137673;27;952;-57
2023/08/06 09:45:16;;;;;;;;;;;;;;;26.63;50.81;94096.00;5137466;27;1080;-60
2023/08/06 09:47:42;;;;;;;;;;;;;;;26.51;47.70;94101.03;5119365;27;1036;-60
2023/08/06 09:50:18;;;;;;;;;;;;;;;26.26;50.97;94100.13;5137393;27;967;-59
2023/08/06 09:52:45;;;;;;;;;;;;;;;26.27;49.76;94100.94;5137570;27;960;-59
2023/08/06 09:55:11;;;;;;;;;;;;;;;26.16;47.80;94105.69;5137043;27;1152;-60
2023/08/06 09:57:38;;;;;;;;;;;;;;;26.10;48.21;94095.84;5137378;27;1055;-59
2023/08/06 10:00:08;;;;;;;;;;;;;;;26.24;48.62;94110.53;5137453;27;1986;-59
2023/08/06 10:02:34;;;;;;;;;;;;;;;26.20;46.26;94106.75;5137030;27;1071;-60
2023/08/06 10:05:00;;;;;;;;;;;;;;;26.15;46.31;94112.25;5118679;27;1217;-59
2023/08/06 10:07:27;;;;;;;;;;;;;;;26.22;47.91;94106.47;5136823;27;1051;-59
2023/08/06 10:09:53;;;;;;;;;;;;;;;26.78;48.43;94106.03;5136587;27;2849;-60
2023/08/06 10:12:19;;;;;;;;;;;;;;;27.44;48.59;94104.53;5136567;27;2840;-59
2023/08/06 10:14:46;;;;;;;;;;;;;;;27.63;46.21;94110.09;5137241;27;1044;-59
2023/08/06 10:17:12;;;;;;;;;;;;;;;27.67;46.81;94110.31;5135382;27;2605;-60
2023/08/06 10:19:38;;;;;;;;;;;;;;;27.79;47.88;94118.13;5137204;27;1024;-60
2023/08/06 10:22:08;;;;;;;;;;;;;;;27.55;44.33;94118.16;5135942;27;2964;-60
2023/08/06 10:24:50;;;;;;;;;;;;;;;27.16;44.42;94121.84;5135945;27;2503;-60
2023/08/06 10:27:20;;;;;;;;;;;;;;;26.76;45.28;94118.41;5136903;27;1355;-59
2023/08/06 10:29:46;;;;;;;;;;;;;;;26.42;46.04;94106.28;5125996;27;1165;-59
2023/08/06 10:32:12;;;;;;;;;;;;;;;26.41;45.67;94107.41;5129534;27;2530;-59
2023/08/06 10:34:55;;;;;;;;;;;;;;;26.59;45.93;94099.59;5119377;27;1637;-59
2023/08/06 10:37:23;;;;;;;;;;;;;;;27.06;48.97;94095.34;5137184;27;1107;-59
2023/08/06 10:39:50;;;;;;;;;;;;;;;27.25;47.57;94089.97;5118948;27;1067;-61
2023/08/06 10:42:20;;;;;;;;;;;;;;;27.36;45.41;94087.94;5136412;27;1905;-60
2023/08/06 10:45:05;;;;;;;;;;;;;;;27.52;46.35;94083.06;5118417;27;1819;-60
2023/08/06 10:47:37;;;;;;;;;;;;;;;27.65;43.79;94085.91;5136887;27;1020;-60
2023/08/06 10:50:03;;;;;;;;;;;;;;;27.60;45.10;94087.88;5104428;28;1989;-59
2023/08/06 10:52:29;;;;;;;;;;;;;;;27.56;43.56;94097.81;5116249;28;1095;-61
2023/08/06 10:54:55;;;;;;;;;;;;;;;27.49;44.61;94086.38;5098050;28;1057;-61
2023/08/06 10:57:22;;;;;;;;;;;;;;;27.42;44.01;94093.03;5156594;27;1099;-60
2023/08/06 10:59:47;;;;;;;;;;;;;;;27.55;45.46;94074.25;5157314;27;957;-61
2023/08/06 11:02:13;;;;;;;;;;;;;;;27.63;44.17;94096.34;5157140;27;1910;-61
2023/08/06 11:04:40;;;;;;;;;;;;;;;27.64;41.88;94100.75;5157320;27;999;-61
2023/08/06 11:07:07;;;;;;;;;;;;;;;27.59;43.43;94094.50;5138837;27;1273;-61
2023/08/06 11:09:32;;;;;;;;;;;;;;;27.59;44.87;94078.84;5156632;27;1083;-60
2023/08/06 11:11:59;;;;;;;;;;;;;;;27.75;44.86;94078.63;5157058;27;987;-59
2023/08/06 11:14:24;;;;;;;;;;;;;;;27.90;45.10;94070.22;5156707;27;1027;-58
2023/08/06 11:16:50;;;;;;;;;;;;;;;27.96;45.77;94070.97;5156096;27;1229;-60
2023/08/06 11:19:16;;;;;;;;;;;;;;;27.94;46.07;94067.69;5156091;27;1034;-59
2023/08/06 11:21:43;;;;;;;;;;;;;;;27.96;43.29;94082.75;5156550;27;1905;-62
2023/08/06 11:24:10;;;;;;;;;;;;;;;27.73;43.84;94087.16;5156382;27;1028;-60
2023/08/06 11:26:36;;;;;;;;;;;;;;;27.18;42.46;94089.44;5142993;27;1231;-61
2023/08/06 11:29:02;;;;;;;;;;;;;;;26.83;44.05;94095.00;5134367;27;2450;-61
2023/08/06 11:31:29;;;;;;;;;;;;;;;26.53;46.50;94090.59;5134597;27;1210;-61
2023/08/06 11:33:55;;;;;;;;;;;;;;;26.40;48.02;94094.00;5135249;27;992;-60
2023/08/06 11:36:34;;;;;;;;;;;;;;;26.36;46.16;94091.00;5134786;27;1222;-59
2023/08/06 11:39:00;;;;;;;;;;;;;;;26.38;46.64;94099.75;5117210;27;1011;-60
2023/08/06 11:41:30;;;;;;;;;;;;;;;26.29;45.96;94098.72;5135085;27;1909;-60
2023/08/06 11:43:56;;;;;;;;;;;;;;;26.22;45.77;94101.00;5116730;27;1503;-59
2023/08/06 11:46:23;;;;;;;;;;;;;;;26.17;48.37;94101.81;5134389;27;1192;-60
2023/08/06 11:48:52;;;;;;;;;;;;;;;26.35;46.54;94104.97;5112084;27;2257;-56
2023/08/06 11:51:22;;;;;;;;;;;;;;;26.70;46.79;94114.88;5134349;27;2912;-58
2023/08/06 11:53:58;;;;;;;;;;;;;;;26.74;47.65;94098.69;5134957;27;1091;-59
2023/08/06 11:56:25;;;;;;;;;;;;;;;27.08;45.13;94095.88;5134804;27;1171;-62
2023/08/06 11:58:51;;;;;;;;;;;;;;;27.35;46.07;94086.28;5133637;27;2535;-58
2023/08/06 12:01:17;;;;;;;;;;;;;;;27.55;47.42;94074.25;5133236;27;2458;-62
2023/08/06 12:03:43;;;;;;;;;;;;;;;27.42;47.86;94086.75;5134849;27;1043;-60
2023/08/06 12:06:09;;;;;;;;;;;;;;;27.52;51.37;94072.88;5134967;27;1091;-60
2023/08/06 12:08:35;;;;;;;;;;;;;;;27.52;49.78;94078.38;5116622;27;969;-64
2023/08/06 12:11:01;;;;;;;;;;;;;;;27.55;49.68;94085.22;5132648;27;2539;-64
2023/08/06 12:13:27;;;;;;;;;;;;;;;27.60;49.84;94083.25;5123634;27;2658;-63
2023/08/06 12:15:54;;;;;;;;;;;;;;;27.48;49.36;94079.28;5114391;28;1042;-64
2023/08/06 12:18:20;;;;;;;;;;;;;;;27.23;50.75;94079.25;5113903;28;1048;-65
2023/08/06 12:20:46;;;;;;;;;;;;;;;27.11;51.34;94088.97;5113941;28;1986;-64
2023/08/06 12:23:15;;;;;;;;;;;;;;;26.84;49.57;94085.69;5130134;27;1230;-63
2023/08/06 12:25:41;;;;;;;;;;;;;;;26.73;51.23;94088.81;5134520;27;1039;-61
2023/08/06 12:28:09;;;;;;;;;;;;;;;26.69;53.94;94080.34;5125936;28;1486;-60
2023/08/06 12:30:35;;;;;;;;;;;;;;;26.96;51.22;94084.47;5113879;28;1250;-61
2023/08/06 12:33:01;;;;;;;;;;;;;;;27.07;49.66;94089.56;5128048;27;1273;-62
2023/08/06 12:35:27;;;;;;;;;;;;;;;26.90;48.82;94080.16;5134590;28;1221;-63
2023/08/06 12:37:54;;;;;;;;;;;;;;;26.74;51.07;94077.56;5134408;28;1188;-65
2023/08/06 12:40:20;;;;;;;;;;;;;;;26.85;52.22;94081.03;5134448;28;1913;-62
2023/08/06 12:42:46;;;;;;;;;;;;;;;26.88;50.20;94074.94;5146774;27;1158;-64
2023/08/06 12:45:12;;;;;;;;;;;;;;;26.65;49.32;94085.59;5155326;27;1039;-62
2023/08/06 12:47:38;;;;;;;;;;;;;;;26.54;49.58;94073.06;5154940;27;1047;-62
2023/08/06 12:50:05;;;;;;;;;;;;;;;26.80;46.21;94070.91;5135149;27;2522;-59
2023/08/06 12:52:31;;;;;;;;;;;;;;;27.14;47.83;94061.78;5126872;27;1185;-59